Terminal Aerodrome Forecast
Issued by NWS Duluth, MN

Home | Current Version | Previous Version | Text Only | Print | Product List | Glossary On
Versions: 1 2 3 4 5 6 7 8 9 10 11 12 13 14 15 16 17 18 19 20 21 22 23 24
000
FTUS43 KDLH 060536
TAFDLH
TAF
KDLH 060536Z 0606/0706 33006KT 3SM BR BKN025
      TEMPO 0606/0610 1/2SM FG BKN005
     FM061300 33010KT P6SM VCSH OVC015
     FM061700 36012G22KT P6SM BKN100
     FM062100 35009KT P6SM BKN250=

USA.gov is the U.S. government's official web portal to all federal, state and local government web resources and services.